Origin CityOrigin StateDestination CityDestination StateTrailer TypeShip DateTrailer LengthLoad WeightPay RateCompany NameContact InfoTrip Miles
Birmingham AL Acworth GA F 2018-11-20 48 48000 450.00 TREK TRANSPORTATION BROKERAGE, INC. 800-882-2661 147
Birmingham AL Cumming GA F 2018-11-20 48 48000 475.00 TREK TRANSPORTATION BROKERAGE, INC. 800-882-2661 183
Chapman AL Tampa FL F+T 2018-11-20 48 48000 1000.00 TREK TRANSPORTATION BROKERAGE, INC. 800-882-2661 477
Chapman AL Houston TX F+T 2018-11-20 48 48000 1200.00 TREK TRANSPORTATION BROKERAGE, INC. 800-882-2661 580
Cottonton AL Spanish Fort AL F+T 2018-11-20 48 48000 500.00 TREK TRANSPORTATION BROKERAGE, INC. 800-882-2661 257
Cottonton AL Winter Haven FL F+T 2018-11-20 48 48000 850.00 TREK TRANSPORTATION BROKERAGE, INC. 800-882-2661 398
Demopolis AL Buford GA F+T 2018-11-20 48 48000 650.00 TREK TRANSPORTATION BROKERAGE, INC. 800-882-2661 296
Demopolis AL Apple Creek OH F+T 2018-11-20 48 48000 1300.00 TREK TRANSPORTATION BROKERAGE, INC. 800-882-2661 780
Demopolis AL Port Neches TX F+T 2018-11-20 48 48000 750.00 TREK TRANSPORTATION BROKERAGE, INC. 800-882-2661 490
Fayette AL Franklin KY F+T 2018-11-20 48 48000 500.00 TREK TRANSPORTATION BROKERAGE, INC. 800-882-2661 256
Gordo AL Chickasaw AL F+T 2018-11-21 48 48000 450.00 TREK TRANSPORTATION BROKERAGE, INC. 800-882-2661 216
Grayson AL Arcola IL F+T 2018-11-20 48 48000 800.00 TREK TRANSPORTATION BROKERAGE, INC. 800-882-2661 494
Grayson AL Phoenix IL F+T 2018-11-20 48 48000 950.00 TREK TRANSPORTATION BROKERAGE, INC. 800-882-2661 607
Grayson AL Sullivan IL F+T 2018-11-20 48 48000 750.00 TREK TRANSPORTATION BROKERAGE, INC. 800-882-2661 495
Grayson AL Utica KY F+T 2018-11-20 48 48000 725.00 TREK TRANSPORTATION BROKERAGE, INC. 800-882-2661 281
Grayson AL Rutherfordton NC F+T 2018-11-20 48 48000 800.00 TREK TRANSPORTATION BROKERAGE, INC. 800-882-2661 436
Hanceville AL Washington IA F+T 2018-11-20 48 48000 1275.00 TREK TRANSPORTATION BROKERAGE, INC. 800-882-2661 761
Hanceville AL Meadows of Dan VA F+T 2018-11-20 48 48000 900.00 TREK TRANSPORTATION BROKERAGE, INC. 800-882-2661 479
Huntsville AL Pageland SC F+T 2018-11-20 48 48000 800.00 TREK TRANSPORTATION BROKERAGE, INC. 800-882-2661 455
Lafayette AL Rutherfordton NC F+T 2018-11-20 48 48000 700.00 TREK TRANSPORTATION BROKERAGE, INC. 800-882-2661 301
Maplesville AL Summerville SC F+T 2018-11-20 48 48000 850.00 TREK TRANSPORTATION BROKERAGE, INC. 800-882-2661 429
Monroeville AL Albany GA F+T 2018-11-20 48 48000 500.00 TREK TRANSPORTATION BROKERAGE, INC. 800-882-2661 279
Monroeville AL Douglas GA F+T 2018-11-20 48 48000 700.00 TREK TRANSPORTATION BROKERAGE, INC. 800-882-2661 357
Monroeville AL Moultrie GA F+T 2018-11-20 48 48000 525.00 TREK TRANSPORTATION BROKERAGE, INC. 800-882-2661 258
Monroeville AL Suwanee GA F 2018-11-20 48 48000 600.00 TREK TRANSPORTATION BROKERAGE, INC. 800-882-2661 299
Monroeville AL Grabill IN F+T 2018-11-20 48 48000 1325.00 TREK TRANSPORTATION BROKERAGE, INC. 800-882-2661 806
Monroeville AL Ashland City TN F+T 2018-11-20 48 48000 725.00 TREK TRANSPORTATION BROKERAGE, INC. 800-882-2661 408
Monroeville AL Morristown TN F+T 2018-11-20 48 48000 800.00 TREK TRANSPORTATION BROKERAGE, INC. 800-882-2661 486
Salem AL Marshville NC F+T 2018-11-20 48 48000 700.00 TREK TRANSPORTATION BROKERAGE, INC. 800-882-2661 428
Salem AL Mifflintown PA F+T 2018-11-20 48 48000 1375.00 TREK TRANSPORTATION BROKERAGE, INC. 800-882-2661 813
Vance AL Portland IN V 2018-11-20 53 45000 550.00 TREK TRANSPORTATION BROKERAGE, INC. 800-882-2661 601
Gurdon AR Amarillo TX F 2018-11-20 48 48000 1325.00 TREK TRANSPORTATION BROKERAGE, INC. 800-882-2661 672
Gurdon AR Temple TX F 2018-11-20 48 48000 800.00 TREK TRANSPORTATION BROKERAGE, INC. 800-882-2661 368
Ola AR Fort Smith AR F+T 2018-11-20 48 48000 350.00 TREK TRANSPORTATION BROKERAGE, INC. 800-882-2661 81
Ola AR Fort Gibson OK F+T 2018-11-20 48 48000 600.00 TREK TRANSPORTATION BROKERAGE, INC. 800-882-2661 154
Plumerville AR Mayfield KY F+T 2018-11-20 48 48000 575.00 TREK TRANSPORTATION BROKERAGE, INC. 800-882-2661 321
Waldo AR Lincoln AR F+T 2018-11-20 48 48000 600.00 TREK TRANSPORTATION BROKERAGE, INC. 800-882-2661 319
Waldo AR Lincoln AR F+T 2018-11-20 48 48000 675.00 TREK TRANSPORTATION BROKERAGE, INC. 800-882-2661 319
Waldo AR Houston TX F 2018-11-20 48 48000 625.00 TREK TRANSPORTATION BROKERAGE, INC. 800-882-2661 318
Waldo AR Houston TX F+T 2018-11-20 48 48000 650.00 TREK TRANSPORTATION BROKERAGE, INC. 800-882-2661 318
Waldo AR Pasadena TX F+T 2018-11-20 48 48000 675.00 TREK TRANSPORTATION BROKERAGE, INC. 800-882-2661 328
Waldo AR Silsbee TX F+T 2018-11-20 48 48000 600.00 TREK TRANSPORTATION BROKERAGE, INC. 800-882-2661 262
Waldo AR Silsbee TX F+T 2018-11-20 48 48000 650.00 TREK TRANSPORTATION BROKERAGE, INC. 800-882-2661 262
Warren AR Gordo AL F+T 2018-11-20 48 48000 475.00 TREK TRANSPORTATION BROKERAGE, INC. 800-882-2661 276
Warren AR Fort Smith AR F+T 2018-11-20 48 48000 515.00 TREK TRANSPORTATION BROKERAGE, INC. 800-882-2661 244
Warren AR Sullivan IL F+T 2018-11-20 48 48000 900.00 TREK TRANSPORTATION BROKERAGE, INC. 800-882-2661 545
Warren AR Newark OH F 2018-11-20 48 48000 1425.00 TREK TRANSPORTATION BROKERAGE, INC. 800-882-2661 815
Warren AR Houston TX F 2018-11-20 48 48000 725.00 TREK TRANSPORTATION BROKERAGE, INC. 800-882-2661 381
Warren AR Houston TX F+T 2018-11-20 48 48000 775.00 TREK TRANSPORTATION BROKERAGE, INC. 800-882-2661 381
Warren AR Houston TX F+T 2018-11-20 48 48000 725.00 TREK TRANSPORTATION BROKERAGE, INC. 800-882-2661 381
Warren AR Silsbee TX F 2018-11-20 48 48000 650.00 TREK TRANSPORTATION BROKERAGE, INC. 800-882-2661 323
Warren AR Chippewa Falls WI F+T 2018-11-20 48 48000 1650.00 TREK TRANSPORTATION BROKERAGE, INC. 800-882-2661 1029
Heber AZ Mesquite NV F 2018-11-20 48 48000 900.00 TREK TRANSPORTATION BROKERAGE, INC. 800-882-2661 465
Del Norte CO Calexico CA F+T 2018-11-20 48 48000 1450.00 TREK TRANSPORTATION BROKERAGE, INC. 800-882-2661 843
Golden CO Pueblo CO F+T 2018-11-20 48 48000 350.00 TREK TRANSPORTATION BROKERAGE, INC. 800-882-2661 125
Bristol FL Jacksonville FL F+T 2018-11-20 48 48000 500.00 TREK TRANSPORTATION BROKERAGE, INC. 800-882-2661 211
Cypress FL Fort Myers FL F+T 2018-11-20 48 48000 1000.00 TREK TRANSPORTATION BROKERAGE, INC. 800-882-2661 454
Cypress FL Tarrytown FL F+T 2018-11-20 48 48000 500.00 TREK TRANSPORTATION BROKERAGE, INC. 800-882-2661 287
Cypress FL Gainesville GA F+T 2018-11-20 48 48000 700.00 TREK TRANSPORTATION BROKERAGE, INC. 800-882-2661 307
Cypress FL Phoenix IL F+T 2018-11-20 48 48000 1200.00 TREK TRANSPORTATION BROKERAGE, INC. 800-882-2661 886
Havana FL Orlando FL F+T 2018-11-20 48 48000 600.00 TREK TRANSPORTATION BROKERAGE, INC. 800-882-2661 167
McDavid FL Summerville SC F+T 2018-11-20 48 48000 950.00 TREK TRANSPORTATION BROKERAGE, INC. 800-882-2661 514
Augusta GA Mifflintown PA F+T 2018-11-20 48 48000 1000.00 TREK TRANSPORTATION BROKERAGE, INC. 800-882-2661 648
Barnesville GA Toccoa GA F+T 2018-11-21 48 48000 375.00 TREK TRANSPORTATION BROKERAGE, INC. 800-882-2661 149
Baxley GA Summerville SC F+T 2018-11-20 48 48000 325.00 TREK TRANSPORTATION BROKERAGE, INC. 800-882-2661 183
Cordele GA Keyser WV F+T 2018-11-20 48 48000 1100.00 TREK TRANSPORTATION BROKERAGE, INC. 800-882-2661 740
Garden City GA Oviedo FL F+T 2018-11-20 48 48000 750.00 TREK TRANSPORTATION BROKERAGE, INC. 800-882-2661 274
Garden City GA Myrtle Beach SC F+T 2018-11-20 48 48000 550.00 TREK TRANSPORTATION BROKERAGE, INC. 800-882-2661 225
Warrenton GA Summerville SC F+T 2018-11-20 48 48000 325.00 TREK TRANSPORTATION BROKERAGE, INC. 800-882-2661 130
Grangeville ID Grand Junction CO F+T 2018-11-20 48 48000 2000.00 TREK TRANSPORTATION BROKERAGE, INC. 800-882-2661 820
Lewiston ID Grand Junction CO F+T 2018-11-20 48 48000 1900.00 TREK TRANSPORTATION BROKERAGE, INC. 800-882-2661 889
Aurora IL Milroy IN F 2018-11-20 48 48000 450.00 TREK TRANSPORTATION BROKERAGE, INC. 800-882-2661 259
Chicago IL Lafayette IN F 2018-11-26 48 48000 400.00 TREK TRANSPORTATION BROKERAGE, INC. 800-882-2661 122
Chicago IL Milroy IN F 2018-11-20 48 48000 450.00 TREK TRANSPORTATION BROKERAGE, INC. 800-882-2661 225
Chicago IL Cuyahoga Falls OH V 2018-11-20 53 35000 1000.00 TREK TRANSPORTATION BROKERAGE, INC. 800-882-2661 360
Chicago IL Cudahy WI F+T 2018-11-21 48 48000 400.00 TREK TRANSPORTATION BROKERAGE, INC. 800-882-2661 90
Godfrey IL Darien WI F+T 2018-11-20 48 48000 700.00 TREK TRANSPORTATION BROKERAGE, INC. 800-882-2661 316
Peoria IL Green Bay WI F 2018-11-20 48 46000 600.00 TREK TRANSPORTATION BROKERAGE, INC. 800-882-2661 341
Peoria IL Green Bay WI F 2018-11-21 48 46000 600.00 TREK TRANSPORTATION BROKERAGE, INC. 800-882-2661 341
Phoenix IL Hearne TX F 2018-11-20 48 48000 2100.00 TREK TRANSPORTATION BROKERAGE, INC. 800-882-2661 1069
Phoenix IL Hearne TX F 2018-11-21 48 48000 2100.00 TREK TRANSPORTATION BROKERAGE, INC. 800-882-2661 1069
Phoenix IL Glen Easton WV F 2018-11-20 48 48000 1275.00 TREK TRANSPORTATION BROKERAGE, INC. 800-882-2661 488
Rock Island IL Pacific Junction IA F+T 2018-11-20 48 48000 650.00 TREK TRANSPORTATION BROKERAGE, INC. 800-882-2661 315
Rockford IL Jeffersonville IN F 2018-11-20 48 48000 675.00 TREK TRANSPORTATION BROKERAGE, INC. 800-882-2661 379
Rockford IL Rockville IN F+T 2018-11-20 48 48000 450.00 TREK TRANSPORTATION BROKERAGE, INC. 800-882-2661 259
Rockford IL Salem IN F 2018-11-20 48 48000 800.00 TREK TRANSPORTATION BROKERAGE, INC. 800-882-2661 324
Rockford IL Darien WI F 2018-11-20 48 48000 200.00 TREK TRANSPORTATION BROKERAGE, INC. 800-882-2661 39
Mount Vernon IN North East MD F+T 2018-11-27 48 48000 1800.00 TREK TRANSPORTATION BROKERAGE, INC. 800-882-2661 707
Tompkinsville KY Milroy IN V 2018-11-20 53 45000 550.00 TREK TRANSPORTATION BROKERAGE, INC. 800-882-2661 227
Tompkinsville KY Toledo OH F 2018-11-21 48 48000 775.00 TREK TRANSPORTATION BROKERAGE, INC. 800-882-2661 424
Baton Rouge LA Lake Charles LA F+T 2018-11-21 48 48000 350.00 TREK TRANSPORTATION BROKERAGE, INC. 800-882-2661 128
Bogalusa LA Milton FL F+T 2018-11-20 48 48000 500.00 TREK TRANSPORTATION BROKERAGE, INC. 800-882-2661 205
Covington LA Chippewa Falls WI F+T 2018-11-20 48 48000 1750.00 TREK TRANSPORTATION BROKERAGE, INC. 800-882-2661 1185
Dequincy LA Silsbee TX F+T 2018-11-20 48 48000 350.00 TREK TRANSPORTATION BROKERAGE, INC. 800-882-2661 59
Joyce LA Fort Smith AR F+T 2018-11-20 48 48000 675.00 TREK TRANSPORTATION BROKERAGE, INC. 800-882-2661 375
Oakdale LA Houston TX F+T 2018-11-21 48 48000 550.00 TREK TRANSPORTATION BROKERAGE, INC. 800-882-2661 201
Simsboro LA Princeville IL F 2018-11-22 48 48000 1325.00 TREK TRANSPORTATION BROKERAGE, INC. 800-882-2661 769
Simsboro LA Owatonna MN F+T 2018-11-23 48 48000 1700.00 TREK TRANSPORTATION BROKERAGE, INC. 800-882-2661 969
Simsboro LA Seguin TX F 2018-11-20 48 48000 800.00 TREK TRANSPORTATION BROKERAGE, INC. 800-882-2661 427
Winnfield LA Houston TX F+T 2018-11-20 48 48000 600.00 TREK TRANSPORTATION BROKERAGE, INC. 800-882-2661 286
Winnfield LA Richmond TX F+T 2018-11-20 48 48000 700.00 TREK TRANSPORTATION BROKERAGE, INC. 800-882-2661 314
Monson MA Milton DE F 2018-11-20 48 48000 500.00 TREK TRANSPORTATION BROKERAGE, INC. 800-882-2661 344
Monson MA CAMDEN DE F 2018-11-20 48 48000 500.00 TREK TRANSPORTATION BROKERAGE, INC. 800-882-2661 N/A
Monson MA Joppa MD F 2018-11-20 48 48000 500.00 TREK TRANSPORTATION BROKERAGE, INC. 800-882-2661 319
Monson MA Thurmont MD F 2018-11-20 48 48000 550.00 TREK TRANSPORTATION BROKERAGE, INC. 800-882-2661 378
Monson MA Fishersville VA F 2018-11-20 48 48000 700.00 TREK TRANSPORTATION BROKERAGE, INC. 800-882-2661 529
Baltimore MD Ephrata PA F 2018-11-21 48 48000 300.00 TREK TRANSPORTATION BROKERAGE, INC. 800-882-2661 89
Baltimore MD Millerstown PA F+T 2018-11-21 48 48000 400.00 TREK TRANSPORTATION BROKERAGE, INC. 800-882-2661 214
Easton ME Bainbridge NY F+T 2018-11-20 48 48000 1475.00 TREK TRANSPORTATION BROKERAGE, INC. 800-882-2661 654
Easton ME McVeytown PA F+T 2018-11-20 48 48000 1650.00 TREK TRANSPORTATION BROKERAGE, INC. 800-882-2661 827
Alpena MI Schiller Park IL F+T 2018-11-20 48 48000 800.00 TREK TRANSPORTATION BROKERAGE, INC. 800-882-2661 467
Alpena MI Truman MN F+T 2018-11-20 48 48000 1325.00 TREK TRANSPORTATION BROKERAGE, INC. 800-882-2661 735
Alpena MI Pompton Plains NJ F+T 2018-11-20 48 48000 1650.00 TREK TRANSPORTATION BROKERAGE, INC. 800-882-2661 832
Detroit MI Saint Henry OH F+T 2018-11-21 48 48000 450.00 TREK TRANSPORTATION BROKERAGE, INC. 800-882-2661 187
Detroit MI Superior WI F 2018-11-26 31 28000 2000.00 TREK TRANSPORTATION BROKERAGE, INC. 800-882-2661 747
Detroit MI Bickmore WV F 2018-11-26 48 48000 775.00 TREK TRANSPORTATION BROKERAGE, INC. 800-882-2661 416
Grayling MI Marengo IL F+T 2018-11-20 48 48000 775.00 TREK TRANSPORTATION BROKERAGE, INC. 800-882-2661 423
Grayling MI Princeville IL F 2018-11-20 48 48000 725.00 TREK TRANSPORTATION BROKERAGE, INC. 800-882-2661 495
Grayling MI Princeville IL F 2018-11-23 48 48000 800.00 TREK TRANSPORTATION BROKERAGE, INC. 800-882-2661 495
Grayling MI Sullivan IL F+T 2018-11-20 48 48000 900.00 TREK TRANSPORTATION BROKERAGE, INC. 800-882-2661 529
Grayling MI Holland MI F+T 2018-11-20 48 48000 350.00 TREK TRANSPORTATION BROKERAGE, INC. 800-882-2661 197
Grayling MI Wyoming MI F+T 2018-11-20 48 48000 350.00 TREK TRANSPORTATION BROKERAGE, INC. 800-882-2661 425
Gwinn MI Cresco IA F+T 2018-11-20 48 48000 1050.00 TREK TRANSPORTATION BROKERAGE, INC. 800-882-2661 430
Gwinn MI Milroy IN F 2018-11-20 48 48000 1200.00 TREK TRANSPORTATION BROKERAGE, INC. 800-882-2661 607
Gwinn MI Darien WI F 2018-11-20 48 48000 750.00 TREK TRANSPORTATION BROKERAGE, INC. 800-882-2661 338
Ironwood MI Zion IL F 2018-11-20 48 48000 800.00 TREK TRANSPORTATION BROKERAGE, INC. 800-882-2661 353
Mason MI Pontiac MI V 2018-11-20 53 36000 375.00 TREK TRANSPORTATION BROKERAGE, INC. 800-882-2661 234
Newberry MI Sullivan IL F+T 2018-11-20 48 48000 1200.00 TREK TRANSPORTATION BROKERAGE, INC. 800-882-2661 687
Newberry MI Opelousas LA F+T 2018-11-26 48 48000 2450.00 TREK TRANSPORTATION BROKERAGE, INC. 800-882-2661 1456
Newberry MI Temperance MI F+T 2018-11-20 48 48000 775.00 TREK TRANSPORTATION BROKERAGE, INC. 800-882-2661 389
Sagola MI Blue Island IL F+T 2018-11-20 48 48000 650.00 TREK TRANSPORTATION BROKERAGE, INC. 800-882-2661 358
Sagola MI Monroe MI F+T 2018-11-26 48 48000 1000.00 TREK TRANSPORTATION BROKERAGE, INC. 800-882-2661 521
Warren MI Houston TX F+T 2018-11-20 24 23000 1200.00 TREK TRANSPORTATION BROKERAGE, INC. 800-882-2661 1326
Bemidji MN Bloomfield IA F 2018-11-20 48 48000 1100.00 TREK TRANSPORTATION BROKERAGE, INC. 800-882-2661 567
Ellington MO Fort Smith AR V 2018-11-20 53 45000 800.00 TREK TRANSPORTATION BROKERAGE, INC. 800-882-2661 366
Saint Louis MO Jefferson City TN F 2018-11-20 48 48000 850.00 TREK TRANSPORTATION BROKERAGE, INC. 800-882-2661 518
Ackerman MS Gainesville GA F+T 2018-11-20 48 48000 775.00 TREK TRANSPORTATION BROKERAGE, INC. 800-882-2661 365
Ackerman MS Shreveport LA F+T 2018-11-20 48 48000 425.00 TREK TRANSPORTATION BROKERAGE, INC. 800-882-2661 327
Bay Springs MS Temple TX F 2018-11-20 48 48000 1000.00 TREK TRANSPORTATION BROKERAGE, INC. 800-882-2661 537
Beaumont MS Patterson LA F+T 2018-11-20 48 48000 450.00 TREK TRANSPORTATION BROKERAGE, INC. 800-882-2661 218
Beaumont MS Cape Girardeau MO F 2018-11-20 48 48000 800.00 TREK TRANSPORTATION BROKERAGE, INC. 800-882-2661 499
Beaumont MS Cape Girardeau MO F+T 2018-11-20 48 48000 800.00 TREK TRANSPORTATION BROKERAGE, INC. 800-882-2661 499
Grenada MS Statesville NC F+T 2018-11-20 48 48000 1200.00 TREK TRANSPORTATION BROKERAGE, INC. 800-882-2661 658
Houston MS Bonita Springs FL F+T 2018-11-20 48 48000 1700.00 TREK TRANSPORTATION BROKERAGE, INC. 800-882-2661 826
Houston MS Paducah KY F+T 2018-11-20 48 48000 650.00 TREK TRANSPORTATION BROKERAGE, INC. 800-882-2661 323
Louisville MS Adairsville GA F+T 2018-11-20 48 48000 650.00 TREK TRANSPORTATION BROKERAGE, INC. 800-882-2661 309
Louisville MS Morristown TN F+T 2018-11-20 48 48000 825.00 TREK TRANSPORTATION BROKERAGE, INC. 800-882-2661 468
Silver Creek MS Winter Haven FL F+T 2018-11-20 48 48000 1425.00 TREK TRANSPORTATION BROKERAGE, INC. 800-882-2661 667
Vicksburg MS Hartselle AL F+T 2018-11-20 48 48000 650.00 TREK TRANSPORTATION BROKERAGE, INC. 800-882-2661 346
Evergreen MT Downey CA F+T 2018-11-20 48 48000 2600.00 TREK TRANSPORTATION BROKERAGE, INC. 800-882-2661 1314
Dudley NC Thurmont MD F+T 2018-11-21 48 48000 800.00 TREK TRANSPORTATION BROKERAGE, INC. 800-882-2661 341
Graham NC Walhonding OH F+T 2018-11-20 48 48000 700.00 TREK TRANSPORTATION BROKERAGE, INC. 800-882-2661 420
Mount Gilead NC Chatsworth GA F+T 2018-11-26 48 48000 700.00 TREK TRANSPORTATION BROKERAGE, INC. 800-882-2661 273
Mount Gilead NC Rutherfordton NC F+T 2018-11-20 48 48000 400.00 TREK TRANSPORTATION BROKERAGE, INC. 800-882-2661 76
Mount Gilead NC Statesville NC F+T 2018-11-20 48 48000 275.00 TREK TRANSPORTATION BROKERAGE, INC. 800-882-2661 9
Mount Gilead NC Mifflintown PA F+T 2018-11-20 48 48000 950.00 TREK TRANSPORTATION BROKERAGE, INC. 800-882-2661 459
Mount Gilead NC Ridgeway VA F+T 2018-11-20 48 48000 350.00 TREK TRANSPORTATION BROKERAGE, INC. 800-882-2661 148
Seaboard NC Cambridge Springs PA F+T 2018-11-20 48 48000 950.00 TREK TRANSPORTATION BROKERAGE, INC. 800-882-2661 542
North Brunswick NJ Sutton MA F+T 2018-11-20 48 48000 750.00 TREK TRANSPORTATION BROKERAGE, INC. 800-882-2661 212
North Brunswick NJ New York Mills NY F+T 2018-11-26 48 48000 725.00 TREK TRANSPORTATION BROKERAGE, INC. 800-882-2661 267
North Brunswick NJ Sidney Center NY F+T 2018-11-20 48 48000 700.00 TREK TRANSPORTATION BROKERAGE, INC. 800-882-2661 181
Retsof NY Fallston MD F 2018-11-21 48 48000 700.00 TREK TRANSPORTATION BROKERAGE, INC. 800-882-2661 298
Retsof NY Dobbs Ferry NY F 2018-11-21 48 48000 725.00 TREK TRANSPORTATION BROKERAGE, INC. 800-882-2661 319
Retsof NY Peekskill NY F 2018-11-21 48 48000 700.00 TREK TRANSPORTATION BROKERAGE, INC. 800-882-2661 298
Retsof NY Ottsville PA F 2018-11-21 48 48000 700.00 TREK TRANSPORTATION BROKERAGE, INC. 800-882-2661 301
Canton OH Plymouth MA SD 2018-11-26 53 48000 1400.00 TREK TRANSPORTATION BROKERAGE, INC. 800-882-2661 662
Canton OH Lawsonville NC F+T 2018-11-20 48 46600 1000.00 TREK TRANSPORTATION BROKERAGE, INC. 800-882-2661 430
Canton OH Lawsonville NC F+T 2018-11-20 48 45500 1000.00 TREK TRANSPORTATION BROKERAGE, INC. 800-882-2661 430
Cincinnati OH Springfield IL V 2018-11-27 53 45000 650.00 TREK TRANSPORTATION BROKERAGE, INC. 800-882-2661 314
Cleveland OH Moraine OH V 2018-11-20 48 23800 350.00 TREK TRANSPORTATION BROKERAGE, INC. 800-882-2661 216
Medina OH Dearborn MI F 2018-11-20 48 48000 450.00 TREK TRANSPORTATION BROKERAGE, INC. 800-882-2661 170
Medina OH Elizabeth City NC F+T 2018-11-20 48 48000 900.00 TREK TRANSPORTATION BROKERAGE, INC. 800-882-2661 544
Medina OH Lumberton NC F+T 2018-11-20 48 48000 1100.00 TREK TRANSPORTATION BROKERAGE, INC. 800-882-2661 602
Twinsburg OH Mason MI F 2018-11-20 20 40000 475.00 TREK TRANSPORTATION BROKERAGE, INC. 800-882-2661 431
Antlers OK Katy TX F+T 2018-11-20 48 48000 725.00 TREK TRANSPORTATION BROKERAGE, INC. 800-882-2661 410
Antlers OK Superior WI F+T 2018-11-20 48 48000 1650.00 TREK TRANSPORTATION BROKERAGE, INC. 800-882-2661 976
Broken Bow OK Lathrop CA F+T 2018-11-20 48 48000 3400.00 TREK TRANSPORTATION BROKERAGE, INC. 800-882-2661 1819
Broken Bow OK Denver CO F+T 2018-11-20 48 48000 1900.00 TREK TRANSPORTATION BROKERAGE, INC. 800-882-2661 902
Broken Bow OK Kansas City KS F+T 2018-11-26 48 48000 775.00 TREK TRANSPORTATION BROKERAGE, INC. 800-882-2661 416
Baker City OR Orlando FL F+T 2018-11-20 48 48000 4550.00 TREK TRANSPORTATION BROKERAGE, INC. 800-882-2661 2729
Central Point OR Amarillo TX F 2018-11-20 48 48000 2300.00 TREK TRANSPORTATION BROKERAGE, INC. 800-882-2661 1685
Cottage Grove OR Lynwood CA F 2018-11-20 48 48000 1725.00 TREK TRANSPORTATION BROKERAGE, INC. 800-882-2661 848
Cottage Grove OR Riverside CA F 2018-11-20 48 48000 1725.00 TREK TRANSPORTATION BROKERAGE, INC. 800-882-2661 557
Dillard OR Madera CA F+T 2018-11-20 48 48000 1275.00 TREK TRANSPORTATION BROKERAGE, INC. 800-882-2661 544
Elgin OR Bakersfield CA F+T 2018-11-20 48 48000 1900.00 TREK TRANSPORTATION BROKERAGE, INC. 800-882-2661 969
Glendale OR Denver CO F+T 2018-11-20 48 48000 3150.00 TREK TRANSPORTATION BROKERAGE, INC. 800-882-2661 1148
Hood River OR Reno NV F 2018-11-20 48 48000 1150.00 TREK TRANSPORTATION BROKERAGE, INC. 800-882-2661 658
Klamath Falls OR San Diego CA F+T 2018-11-20 48 48000 1950.00 TREK TRANSPORTATION BROKERAGE, INC. 800-882-2661 803
Klamath Falls OR Presidio TX F+T 2018-11-20 48 48000 2850.00 TREK TRANSPORTATION BROKERAGE, INC. 800-882-2661 1736
Merlin OR Phoenix AZ F+T 2018-11-20 48 48000 2500.00 TREK TRANSPORTATION BROKERAGE, INC. 800-882-2661 1096
Merlin OR Forney TX F+T 2018-11-20 48 48000 3300.00 TREK TRANSPORTATION BROKERAGE, INC. 800-882-2661 2094
Mill City OR Escondido CA F 2018-11-20 48 48000 1900.00 TREK TRANSPORTATION BROKERAGE, INC. 800-882-2661 1048
Mill City OR Stockton CA F 2018-11-20 48 48000 1300.00 TREK TRANSPORTATION BROKERAGE, INC. 800-882-2661 609
Myrtle Creek OR Sparks NV F 2018-11-20 48 48000 1100.00 TREK TRANSPORTATION BROKERAGE, INC. 800-882-2661 385
Riddle OR Yuma AZ F 2018-11-20 48 48000 2500.00 TREK TRANSPORTATION BROKERAGE, INC. 800-882-2661 1035
Roseburg OR Phoenix AZ F 2018-11-20 48 48000 2300.00 TREK TRANSPORTATION BROKERAGE, INC. 800-882-2661 1157
Roseburg OR Harbor City CA F 2018-11-20 48 48000 1700.00 TREK TRANSPORTATION BROKERAGE, INC. 800-882-2661 803
Roseburg OR Arlington TX V 2018-11-20 53 45000 2800.00 TREK TRANSPORTATION BROKERAGE, INC. 800-882-2661 2123
Roseburg OR Arlington TX F+T 2018-11-20 48 48000 2800.00 TREK TRANSPORTATION BROKERAGE, INC. 800-882-2661 2123
Roseburg OR Houston TX F+T 2018-11-20 48 48000 3300.00 TREK TRANSPORTATION BROKERAGE, INC. 800-882-2661 2373
Roseburg OR San Antonio TX V 2018-11-20 53 45000 2800.00 TREK TRANSPORTATION BROKERAGE, INC. 800-882-2661 2137
Roseburg OR San Antonio TX F+T 2018-11-20 48 48000 2800.00 TREK TRANSPORTATION BROKERAGE, INC. 800-882-2661 2137
White City OR Phoenix AZ V 2018-11-20 53 45000 2200.00 TREK TRANSPORTATION BROKERAGE, INC. 800-882-2661 1069
White City OR Denver CO F+T 2018-11-20 48 48000 3500.00 TREK TRANSPORTATION BROKERAGE, INC. 800-882-2661 1360
White City OR Albuquerque NM F+T 2018-11-20 48 48000 2950.00 TREK TRANSPORTATION BROKERAGE, INC. 800-882-2661 1402
Herndon PA Culpeper VA F+T 2018-11-20 48 48000 550.00 TREK TRANSPORTATION BROKERAGE, INC. 800-882-2661 195
Herndon PA Fredericksburg VA F+T 2018-11-20 48 48000 550.00 TREK TRANSPORTATION BROKERAGE, INC. 800-882-2661 232
Allendale SC Easton MD F+T 2018-11-20 48 48000 900.00 TREK TRANSPORTATION BROKERAGE, INC. 800-882-2661 636
Allendale SC Oxford PA F+T 2018-11-20 48 48000 1100.00 TREK TRANSPORTATION BROKERAGE, INC. 800-882-2661 660
Chester SC Rockwell NC F+T 2018-11-21 48 48000 300.00 TREK TRANSPORTATION BROKERAGE, INC. 800-882-2661 90
Chester SC Culpeper VA F+T 2018-11-20 48 48000 800.00 TREK TRANSPORTATION BROKERAGE, INC. 800-882-2661 361
Conway SC Spartanburg SC F+T 2018-11-20 48 48000 450.00 TREK TRANSPORTATION BROKERAGE, INC. 800-882-2661 223
Darlington SC Ephrata PA F+T 2018-11-20 48 48000 975.00 TREK TRANSPORTATION BROKERAGE, INC. 800-882-2661 543
Darlington SC New Holland PA F+T 2018-11-20 48 48000 975.00 TREK TRANSPORTATION BROKERAGE, INC. 800-882-2661 532
Effingham SC Enfield CT F+T 2018-11-20 48 48000 1550.00 TREK TRANSPORTATION BROKERAGE, INC. 800-882-2661 769
Effingham SC Charleston SC F+T 2018-11-20 48 48000 275.00 TREK TRANSPORTATION BROKERAGE, INC. 800-882-2661 102
Estill SC Haines City FL F 2018-11-20 48 48000 650.00 TREK TRANSPORTATION BROKERAGE, INC. 800-882-2661 363
Estill SC Jacksonville FL F+T 2018-11-20 48 48000 525.00 TREK TRANSPORTATION BROKERAGE, INC. 800-882-2661 184
Estill SC Millersburg PA F+T 2018-11-20 48 48000 1200.00 TREK TRANSPORTATION BROKERAGE, INC. 800-882-2661 690
Johnston SC Enfield CT F+T 2018-11-20 48 48000 1550.00 TREK TRANSPORTATION BROKERAGE, INC. 800-882-2661 890
Kinards SC Lebanon VA F+T 2018-11-20 48 48000 450.00 TREK TRANSPORTATION BROKERAGE, INC. 800-882-2661 226
Newberry SC Summerville SC F+T 2018-11-20 48 48000 275.00 TREK TRANSPORTATION BROKERAGE, INC. 800-882-2661 76
North Charleston SC Leola PA F+T 2018-11-26 48 48000 1275.00 TREK TRANSPORTATION BROKERAGE, INC. 800-882-2661 656
Prosperity SC Atlanta GA F 2018-11-21 48 48000 325.00 TREK TRANSPORTATION BROKERAGE, INC. 800-882-2661 212
Prosperity SC Summerville SC F+T 2018-11-20 48 48000 250.00 TREK TRANSPORTATION BROKERAGE, INC. 800-882-2661 71
Clinton TN Martin TN F 2018-11-29 48 48000 725.00 TREK TRANSPORTATION BROKERAGE, INC. 800-882-2661 326
Dickson TN Raceland KY V 2018-11-21 53 45000 700.00 TREK TRANSPORTATION BROKERAGE, INC. 800-882-2661 373
Lebanon TN Hayesville NC F+T 2018-11-20 48 48000 450.00 TREK TRANSPORTATION BROKERAGE, INC. 800-882-2661 266
Memphis TN North Little Rock AR F+T 2018-11-20 48 48000 475.00 TREK TRANSPORTATION BROKERAGE, INC. 800-882-2661 134
Memphis TN Mesquite TX F+T 2018-11-20 48 48000 775.00 TREK TRANSPORTATION BROKERAGE, INC. 800-882-2661 599
Memphis TN Mesquite TX F+T 2018-11-20 48 48000 800.00 TREK TRANSPORTATION BROKERAGE, INC. 800-882-2661 599
Camden TX Grand Prairie TX F+T 2018-11-20 48 48000 350.00 TREK TRANSPORTATION BROKERAGE, INC. 800-882-2661 215
Camden TX San Antonio TX F 2018-11-21 48 48000 650.00 TREK TRANSPORTATION BROKERAGE, INC. 800-882-2661 289
Camden TX Waco TX F+T 2018-11-20 48 48000 400.00 TREK TRANSPORTATION BROKERAGE, INC. 800-882-2661 172
Carthage TX Seguin TX F 2018-11-21 48 48000 600.00 TREK TRANSPORTATION BROKERAGE, INC. 800-882-2661 323
El Paso TX Douglas AZ F+T 2018-11-20 48 48000 400.00 TREK TRANSPORTATION BROKERAGE, INC. 800-882-2661 259
Houston TX Port Neches TX F+T 2018-11-20 48 48000 325.00 TREK TRANSPORTATION BROKERAGE, INC. 800-882-2661 94
Jasper TX Seguin TX F 2018-11-26 48 48000 600.00 TREK TRANSPORTATION BROKERAGE, INC. 800-882-2661 314
Nacogdoches TX New Braunfels TX F+T 2018-11-20 48 48000 550.00 TREK TRANSPORTATION BROKERAGE, INC. 800-882-2661 263
New Boston TX Bloomfield IA F+T 2018-11-20 48 48000 1075.00 TREK TRANSPORTATION BROKERAGE, INC. 800-882-2661 665
Clearfield UT Price UT F+T 2018-11-20 48 48000 550.00 TREK TRANSPORTATION BROKERAGE, INC. 800-882-2661 146
Panguitch UT Wayne MI F+T 2018-11-26 48 48000 2800.00 TREK TRANSPORTATION BROKERAGE, INC. 800-882-2661 1787
Blackstone VA Beaver Springs PA F+T 2018-11-20 48 48000 650.00 TREK TRANSPORTATION BROKERAGE, INC. 800-882-2661 332
Crystal Hill VA Princeville IL F+T 2018-11-23 48 48000 1450.00 TREK TRANSPORTATION BROKERAGE, INC. 800-882-2661 807
Danville VA Winslow ME V 2018-11-20 53 45000 1675.00 TREK TRANSPORTATION BROKERAGE, INC. 800-882-2661 854
Kinsale VA North Kingstown RI F+T 2018-11-20 48 48000 1225.00 TREK TRANSPORTATION BROKERAGE, INC. 800-882-2661 475
Martinsville VA Goldsboro NC F+T 2018-11-20 48 48000 400.00 TREK TRANSPORTATION BROKERAGE, INC. 800-882-2661 165
Martinsville VA Ruther Glen VA F+T 2018-11-20 48 48000 375.00 TREK TRANSPORTATION BROKERAGE, INC. 800-882-2661 199
Winchester VA North Kingstown RI F+T 2018-11-20 48 48000 1150.00 TREK TRANSPORTATION BROKERAGE, INC. 800-882-2661 449
Colville WA Grand Junction CO F+T 2018-11-20 48 48000 1850.00 TREK TRANSPORTATION BROKERAGE, INC. 800-882-2661 1069
Colville WA Baltimore MD V 2018-11-20 53 45000 3600.00 TREK TRANSPORTATION BROKERAGE, INC. 800-882-2661 2586
Colville WA Baltimore MD F+T 2018-11-20 48 48000 3800.00 TREK TRANSPORTATION BROKERAGE, INC. 800-882-2661 2586
Longview WA Sparks NV F 2018-11-20 48 48000 1150.00 TREK TRANSPORTATION BROKERAGE, INC. 800-882-2661 626
Morton WA Dallas TX V 2018-11-20 53 45000 2300.00 TREK TRANSPORTATION BROKERAGE, INC. 800-882-2661 2165
Shelton WA Emmett ID F+T 2018-11-20 48 48000 900.00 TREK TRANSPORTATION BROKERAGE, INC. 800-882-2661 529
Hayward WI Wichita KS F+T 2018-11-20 48 48000 1425.00 TREK TRANSPORTATION BROKERAGE, INC. 800-882-2661 767
Hayward WI Toston MT F+T 2018-11-20 48 48000 2300.00 TREK TRANSPORTATION BROKERAGE, INC. 800-882-2661 1163
Hayward WI Paden OK F+T 2018-11-20 48 48000 1650.00 TREK TRANSPORTATION BROKERAGE, INC. 800-882-2661 904
Park Falls WI North Aurora IL F 2018-11-20 48 48000 600.00 TREK TRANSPORTATION BROKERAGE, INC. 800-882-2661 364
Cowen WV Meshoppen PA F 2018-11-20 48 48000 725.00 TREK TRANSPORTATION BROKERAGE, INC. 800-882-2661 438
Sutton WV Elizabethville PA F+T 2018-11-21 48 48000 800.00 TREK TRANSPORTATION BROKERAGE, INC. 800-882-2661 321